Terminal Aerodrome Forecast
Issued by NWS Wilmington, OH

Home | Current Version | Previous Version | Text Only | Print | Product List | Glossary On
Versions: 1 2 3 4 5 6 7 8 9 10 11 12 13 14 15 16 17 18 19 20 21 22 23 24 25 26 27
000
FTUS41 KILN 171734
TAFCMH
TAF
KCMH 171734Z 1718/1818 25010G18KT P6SM BKN025
      TEMPO 1718/1719 SCT025 BKN050
     FM180200 26008KT P6SM VCSH OVC015
     FM180600 26009KT P6SM VCSH OVC008
     FM181300 27010KT P6SM OVC012=

USA.gov is the U.S. government's official web portal to all federal, state and local government web resources and services.